Time;durP1;ratioP1;P1;durP2;ratioP2;P2;SDS_P1;SDS_P2;PMS_P1;PMS_P2;Temp;Humidity;BMP_temperature;BMP_pressure;BME280_temperature;BME280_humidity;BME280_pressure;Samples;Min_cycle;Max_cycle;Signal;HPM_P1;HPM_P2
2023/07/29 00:02:17;;;;;;;4.57;2.17;;;;;;;20.29;100.00;95849.56;5056029;28;20029;-83
2023/07/29 00:04:43;;;;;;;5.63;2.17;;;;;;;20.25;100.00;95853.72;5057663;28;20031;-83
2023/07/29 00:07:08;;;;;;;3.45;1.90;;;;;;;20.18;100.00;95853.81;5049479;28;20389;-83
2023/07/29 00:09:34;;;;;;;2.60;1.50;;;;;;;20.44;100.00;95844.56;5068323;28;20035;-83
2023/07/29 00:11:59;;;;;;;2.85;1.23;;;;;;;20.31;100.00;95839.44;5061991;28;20055;-83
2023/07/29 00:14:25;;;;;;;1.85;1.20;;;;;;;20.30;100.00;95848.50;5074998;28;20641;-83
2023/07/29 00:16:55;;;;;;;4.65;1.75;;;;;;;20.34;100.00;95838.97;5059572;28;20672;-83
2023/07/29 00:19:23;;;;;;;3.97;1.35;;;;;;;20.48;100.00;95843.06;5075427;28;20039;-83
2023/07/29 00:21:49;;;;;;;4.07;2.10;;;;;;;20.65;100.00;95842.41;5053657;28;20505;-82
2023/07/29 00:24:14;;;;;;;3.85;1.45;;;;;;;20.59;100.00;95843.31;5038041;28;20029;-83
2023/07/29 00:26:40;;;;;;;4.07;1.27;;;;;;;20.38;100.00;95829.47;5060302;28;20020;-83
2023/07/29 00:29:12;;;;;;;4.43;1.58;;;;;;;20.35;100.00;95826.44;5052462;28;20025;-83
2023/07/29 00:31:41;;;;;;;6.60;1.55;;;;;;;20.28;100.00;95821.22;5054199;28;20078;-84
2023/07/29 00:34:06;;;;;;;2.72;1.15;;;;;;;20.30;100.00;95819.13;5053959;28;20558;-83
2023/07/29 00:36:33;;;;;;;2.67;1.10;;;;;;;20.36;100.00;95826.22;5065895;28;20054;-83
2023/07/29 00:38:58;;;;;;;1.45;1.00;;;;;;;20.31;100.00;95823.41;5052536;28;20047;-83
2023/07/29 00:41:26;;;;;;;2.08;1.40;;;;;;;20.35;100.00;95835.25;5073522;28;20024;-83
2023/07/29 00:43:52;;;;;;;3.38;1.00;;;;;;;20.13;100.00;95843.00;5057422;28;20024;-83
2023/07/29 00:46:19;;;;;;;3.03;1.45;;;;;;;20.10;100.00;95835.47;5073151;28;20478;-83
2023/07/29 00:48:44;;;;;;;2.85;1.20;;;;;;;20.33;100.00;95831.22;5061324;28;20057;-83
2023/07/29 00:51:16;;;;;;;2.20;1.33;;;;;;;20.17;100.00;95830.84;5058651;28;20121;-82
2023/07/29 00:53:41;;;;;;;2.15;1.20;;;;;;;20.53;100.00;95817.56;5050617;28;20543;-83
2023/07/29 00:56:07;;;;;;;2.47;1.13;;;;;;;20.23;100.00;95829.13;5040966;28;20029;-83
2023/07/29 00:58:46;;;;;;;5.30;1.58;;;;;;;20.17;100.00;95830.03;5068234;28;20158;-83
2023/07/29 01:01:12;;;;;;;2.33;1.30;;;;;;;19.84;100.00;95826.00;5058542;28;20023;-83
2023/07/29 01:03:37;;;;;;;3.67;1.35;;;;;;;20.11;100.00;95820.25;5065573;28;20024;-82
2023/07/29 01:06:34;;;;;;;2.22;1.33;;;;;;;20.24;100.00;95812.84;5050851;28;20170;-83
2023/07/29 01:09:04;;;;;;;2.92;1.20;;;;;;;20.18;100.00;95803.09;5045825;28;20543;-83
2023/07/29 01:12:05;;;;;;;2.63;1.30;;;;;;;20.01;100.00;95804.78;5049386;28;20429;-82
2023/07/29 01:14:46;;;;;;;2.13;1.15;;;;;;;20.19;100.00;95802.06;5074631;28;20447;-83
2023/07/29 01:17:22;;;;;;;2.92;1.20;;;;;;;20.16;100.00;95793.69;5079382;28;20028;-83
2023/07/29 01:20:03;;;;;;;3.20;1.23;;;;;;;20.17;100.00;95798.78;5056414;28;20020;-83
2023/07/29 01:22:43;;;;;;;2.30;1.10;;;;;;;20.29;100.00;95788.16;5068521;28;20028;-83
2023/07/29 01:25:09;;;;;;;4.40;1.50;;;;;;;20.21;100.00;95791.94;5072990;28;20025;-83
2023/07/29 01:27:34;;;;;;;3.63;1.33;;;;;;;20.29;100.00;95796.16;5072984;28;20047;-83
2023/07/29 01:30:02;;;;;;;4.20;1.20;;;;;;;20.21;100.00;95791.13;5070920;28;20024;-83
2023/07/29 01:32:37;;;;;;;4.70;1.33;;;;;;;20.17;100.00;95781.97;5064540;28;20047;-83
2023/07/29 01:35:26;;;;;;;2.50;1.13;;;;;;;20.28;100.00;95781.16;5056670;28;20505;-83
2023/07/29 01:37:57;;;;;;;3.45;1.33;;;;;;;20.36;100.00;95780.81;5073041;28;20028;-82
2023/07/29 01:40:27;;;;;;;3.45;0.77;;;;;;;20.33;100.00;95781.28;5057155;28;20108;-83
2023/07/29 01:42:53;;;;;;;1.65;1.05;;;;;;;20.49;100.00;95780.59;5056371;28;20020;-83
2023/07/29 01:45:38;;;;;;;2.72;1.10;;;;;;;20.33;100.00;95780.47;5072733;28;20031;-83
2023/07/29 01:48:07;;;;;;;2.67;1.10;;;;;;;20.23;100.00;95781.06;5056208;28;20035;-83
2023/07/29 01:50:34;;;;;;;5.47;1.48;;;;;;;20.33;100.00;95785.81;5053970;28;20439;-83
2023/07/29 01:53:00;;;;;;;2.50;1.30;;;;;;;20.27;100.00;95781.41;5052752;28;20162;-83
2023/07/29 01:55:26;;;;;;;4.30;1.25;;;;;;;20.32;100.00;95777.00;5036143;28;20033;-83
2023/07/29 01:57:52;;;;;;;3.75;1.35;;;;;;;20.42;100.00;95769.22;5071580;28;20024;-83
2023/07/29 02:00:19;;;;;;;3.40;1.10;;;;;;;20.19;100.00;95770.03;5052637;28;20637;-83
2023/07/29 02:02:45;;;;;;;4.30;1.25;;;;;;;20.36;100.00;95762.13;5065442;28;20107;-83
2023/07/29 02:05:10;;;;;;;2.60;1.20;;;;;;;20.20;100.00;95765.50;5051840;28;20162;-83
2023/07/29 02:07:36;;;;;;;2.28;1.10;;;;;;;20.27;100.00;95763.50;5050366;28;20028;-82
2023/07/29 02:10:02;;;;;;;4.53;1.23;;;;;;;20.08;100.00;95761.97;5066648;28;20389;-82
2023/07/29 02:12:27;;;;;;;3.15;1.45;;;;;;;20.14;100.00;95761.88;5066758;28;20111;-83
2023/07/29 02:14:53;;;;;;;6.13;2.80;;;;;;;20.15;100.00;95758.16;5068652;28;20021;-83
2023/07/29 02:17:23;;;;;;;8.43;3.30;;;;;;;20.29;100.00;95760.59;5052736;28;20033;-83
2023/07/29 02:19:49;;;;;;;4.72;1.63;;;;;;;20.09;100.00;95768.97;5055344;28;20490;-83
2023/07/29 02:22:17;;;;;;;4.82;1.45;;;;;;;20.27;100.00;95763.50;5054804;28;20048;-83
2023/07/29 02:24:43;;;;;;;2.05;1.08;;;;;;;20.26;100.00;95764.56;5060599;28;20479;-83
2023/07/29 02:27:09;;;;;;;5.07;1.77;;;;;;;20.17;100.00;95761.41;5039787;28;20029;-83
2023/07/29 02:29:45;;;;;;;3.45;1.27;;;;;;;20.32;100.00;95768.16;5048536;28;20017;-82
2023/07/29 02:32:11;;;;;;;3.70;1.50;;;;;;;20.32;100.00;95774.34;5042325;28;20508;-83
2023/07/29 02:34:37;;;;;;;2.85;1.33;;;;;;;20.43;100.00;95775.38;5056458;28;20012;-83
2023/07/29 02:37:02;;;;;;;5.00;1.27;;;;;;;20.39;100.00;95768.88;5055683;28;20036;-83
2023/07/29 02:39:28;;;;;;;4.22;1.23;;;;;;;20.39;100.00;95771.53;5070744;28;20024;-82
2023/07/29 02:42:06;;;;;;;3.05;1.23;;;;;;;20.52;100.00;95767.84;5055020;28;20024;-83
2023/07/29 02:44:32;;;;;;;4.72;1.23;;;;;;;20.62;100.00;95766.22;5054516;28;20074;-83
2023/07/29 02:46:57;;;;;;;4.57;1.10;;;;;;;20.63;100.00;95772.38;5059060;28;20529;-83
2023/07/29 02:49:23;;;;;;;7.05;1.60;;;;;;;20.79;100.00;95763.66;5070738;28;20024;-83
2023/07/29 02:51:56;;;;;;;2.83;1.20;;;;;;;20.88;100.00;95758.75;5055096;28;20035;-82
2023/07/29 02:54:22;;;;;;;2.97;1.17;;;;;;;20.78;100.00;95755.84;5071713;28;20029;-83
2023/07/29 02:56:47;;;;;;;3.85;1.58;;;;;;;20.92;100.00;95758.06;5054862;28;20461;-83
2023/07/29 02:59:13;;;;;;;2.42;1.25;;;;;;;21.07;100.00;95754.88;5042382;28;20059;-83
2023/07/29 03:01:38;;;;;;;3.35;1.33;;;;;;;20.80;100.00;95743.88;5054977;28;20028;-83
2023/07/29 03:04:04;;;;;;;3.47;1.25;;;;;;;20.71;100.00;95745.28;5054970;28;20033;-83
2023/07/29 03:06:30;;;;;;;2.35;1.35;;;;;;;21.00;100.00;95742.69;5052171;28;20020;-83
2023/07/29 03:08:55;;;;;;;3.72;1.30;;;;;;;20.66;100.00;95747.88;5046125;28;20047;-83
2023/07/29 03:11:21;;;;;;;4.20;1.50;;;;;;;20.66;100.00;95742.53;5061696;28;20471;-83
2023/07/29 03:13:47;;;;;;;2.00;1.20;;;;;;;20.70;100.00;95741.81;5072604;28;20046;-83
2023/07/29 03:16:15;;;;;;;2.75;1.10;;;;;;;20.47;100.00;95736.47;5066188;28;20024;-83
2023/07/29 03:18:48;;;;;;;5.90;1.60;;;;;;;20.52;100.00;95733.13;5071176;28;20463;-83
2023/07/29 03:21:14;;;;;;;8.88;1.88;;;;;;;20.57;100.00;95727.91;5054202;28;20012;-83
2023/07/29 03:23:39;;;;;;;2.60;1.30;;;;;;;20.46;100.00;95727.63;5051925;28;20017;-83
2023/07/29 03:26:14;;;;;;;3.13;1.13;;;;;;;20.49;100.00;95729.84;5051015;28;20106;-83
2023/07/29 03:28:43;;;;;;;4.65;1.30;;;;;;;20.43;100.00;95713.94;5051593;28;20036;-83
2023/07/29 03:31:10;;;;;;;4.47;1.67;;;;;;;20.47;100.00;95718.56;5043017;28;20112;-83
2023/07/29 03:33:36;;;;;;;4.82;1.60;;;;;;;20.43;100.00;95721.97;5053549;28;20025;-83
2023/07/29 03:36:01;;;;;;;5.95;1.25;;;;;;;20.38;100.00;95722.63;5047070;28;20021;-83
2023/07/29 03:38:27;;;;;;;3.42;1.38;;;;;;;20.25;100.00;95717.53;5070997;28;20098;-83
2023/07/29 03:40:56;;;;;;;3.47;1.55;;;;;;;20.24;100.00;95708.72;5054320;28;20054;-83
2023/07/29 03:43:21;;;;;;;3.95;1.42;;;;;;;20.15;100.00;95709.28;5050898;28;20021;-83
2023/07/29 03:45:55;;;;;;;5.65;1.42;;;;;;;20.30;100.00;95693.63;5071005;28;20043;-83
2023/07/29 03:48:20;;;;;;;4.55;1.50;;;;;;;20.33;100.00;95695.84;5054435;28;20025;-83
2023/07/29 03:50:46;;;;;;;5.65;1.30;;;;;;;20.30;100.00;95696.31;5072358;28;20091;-83
2023/07/29 03:53:11;;;;;;;4.97;1.50;;;;;;;20.23;100.00;95690.28;5067212;28;20028;-83
2023/07/29 03:55:37;;;;;;;2.65;1.40;;;;;;;20.19;100.00;95686.44;5051993;28;20024;-83
2023/07/29 03:58:03;;;;;;;3.60;1.58;;;;;;;20.36;100.00;95689.22;5051181;28;20487;-83
2023/07/29 04:00:28;;;;;;;3.55;1.30;;;;;;;20.37;100.00;95693.50;5057671;28;20390;-83
2023/07/29 04:02:54;;;;;;;5.25;1.65;;;;;;;20.46;100.00;95695.59;5070846;28;20020;-83
2023/07/29 04:05:20;;;;;;;4.43;1.55;;;;;;;20.46;100.00;95692.91;5054210;28;20387;-83
2023/07/29 04:07:46;;;;;;;7.57;1.77;;;;;;;20.49;100.00;95697.00;5054044;28;20032;-83
2023/07/29 04:10:13;;;;;;;2.45;1.40;;;;;;;20.59;100.00;95696.41;5056285;28;20024;-83
2023/07/29 04:12:47;;;;;;;4.18;1.65;;;;;;;20.55;100.00;95705.94;5047165;28;20024;-83
2023/07/29 04:15:13;;;;;;;4.13;1.30;;;;;;;20.71;100.00;95702.53;5071004;28;20386;-83
2023/07/29 04:17:39;;;;;;;2.50;1.42;;;;;;;20.68;100.00;95697.66;5053556;28;20024;-83
2023/07/29 04:20:05;;;;;;;5.05;1.75;;;;;;;20.67;100.00;95696.84;5052966;28;20539;-83
2023/07/29 04:22:33;;;;;;;3.72;1.52;;;;;;;20.69;100.00;95693.94;5084806;28;20051;-83
2023/07/29 04:25:00;;;;;;;4.10;1.80;;;;;;;20.95;100.00;95690.72;5070989;28;20075;-83
2023/07/29 04:27:25;;;;;;;4.00;1.75;;;;;;;20.97;100.00;95692.38;5062869;28;20538;-83
2023/07/29 04:29:51;;;;;;;3.83;1.80;;;;;;;20.92;100.00;95687.72;5047601;28;20032;-83
2023/07/29 04:32:17;;;;;;;4.97;1.92;;;;;;;20.93;100.00;95692.03;5050502;28;20025;-82
2023/07/29 04:34:42;;;;;;;4.95;1.42;;;;;;;21.07;100.00;95685.34;5043224;28;20040;-83
2023/07/29 04:37:15;;;;;;;2.58;1.77;;;;;;;21.05;100.00;95694.66;5049055;28;20028;-83
2023/07/29 04:39:40;;;;;;;5.45;1.92;;;;;;;21.08;100.00;95702.19;5049245;28;20523;-82
2023/07/29 04:42:06;;;;;;;7.18;1.70;;;;;;;21.00;100.00;95702.59;5035227;28;20056;-83
2023/07/29 04:44:31;;;;;;;4.68;2.03;;;;;;;21.00;100.00;95697.25;5057078;28;20217;-83
2023/07/29 04:46:57;;;;;;;3.65;1.60;;;;;;;21.05;100.00;95689.31;5057562;28;20021;-83
2023/07/29 04:49:22;;;;;;;5.00;1.80;;;;;;;21.01;100.00;95685.50;5053070;28;20025;-83
2023/07/29 04:51:48;;;;;;;4.75;1.52;;;;;;;21.26;100.00;95688.66;5054118;28;20020;-83
2023/07/29 04:54:14;;;;;;;3.50;1.73;;;;;;;21.23;100.00;95694.47;5074126;28;20038;-82
2023/07/29 04:56:40;;;;;;;4.78;1.70;;;;;;;21.23;100.00;95699.81;5074097;28;20482;-83
2023/07/29 04:59:07;;;;;;;5.20;1.88;;;;;;;21.33;100.00;95692.00;5074214;28;20442;-83
2023/07/29 05:01:43;;;;;;;6.07;2.10;;;;;;;21.25;100.00;95689.69;5073733;28;20107;-82
2023/07/29 05:04:09;;;;;;;5.75;2.63;;;;;;;21.31;100.00;95694.09;5073841;28;20195;-82
2023/07/29 05:06:34;;;;;;;6.68;2.60;;;;;;;21.23;100.00;95683.78;5057180;28;20021;-83
2023/07/29 05:09:15;;;;;;;5.55;1.88;;;;;;;21.35;100.00;95687.22;5073551;28;20471;-83
2023/07/29 05:11:43;;;;;;;4.95;1.52;;;;;;;21.55;100.00;95696.66;5050832;28;20032;-82
2023/07/29 05:14:09;;;;;;;3.53;1.70;;;;;;;21.36;100.00;95690.72;5056790;28;20803;-83
2023/07/29 05:16:44;;;;;;;5.00;1.80;;;;;;;21.24;100.00;95693.41;5058982;28;20019;-82
2023/07/29 05:19:10;;;;;;;2.42;1.65;;;;;;;21.45;100.00;95686.59;5068088;28;20034;-82
2023/07/29 05:21:53;;;;;;;4.18;1.63;;;;;;;21.42;100.00;95692.44;5074726;28;20032;-82
2023/07/29 05:24:18;;;;;;;3.08;1.60;;;;;;;21.50;100.00;95693.91;5056916;28;20139;-82
2023/07/29 05:26:48;;;;;;;7.03;2.33;;;;;;;21.62;100.00;95700.00;5048189;28;20020;-82
2023/07/29 05:29:14;;;;;;;8.20;2.53;;;;;;;22.08;100.00;95700.75;5073306;28;20024;-82
2023/07/29 05:31:49;;;;;;;4.30;1.88;;;;;;;22.01;100.00;95705.47;5056546;28;20509;-82
2023/07/29 05:34:15;;;;;;;5.10;2.03;;;;;;;21.99;100.00;95712.91;5073577;28;20028;-83
2023/07/29 05:36:41;;;;;;;4.10;2.03;;;;;;;22.17;100.00;95725.28;5058292;28;20017;-83
2023/07/29 05:39:07;;;;;;;5.50;2.65;;;;;;;22.02;100.00;95731.97;5074571;28;20029;-83
2023/07/29 05:41:52;;;;;;;4.55;1.90;;;;;;;21.89;100.00;95749.16;5056473;28;20112;-82
2023/07/29 05:44:17;;;;;;;5.35;2.20;;;;;;;21.98;100.00;95746.09;5068622;28;20368;-82
2023/07/29 05:46:43;;;;;;;4.57;2.25;;;;;;;21.86;100.00;95752.34;5068970;28;20078;-82
2023/07/29 05:49:09;;;;;;;8.00;2.53;;;;;;;21.76;100.00;95765.53;5058994;28;20028;-82
2023/07/29 05:51:35;;;;;;;8.73;2.35;;;;;;;21.51;100.00;95775.78;5068840;28;20032;-82
2023/07/29 05:54:00;;;;;;;11.95;2.45;;;;;;;21.50;100.00;95776.84;5072909;28;20016;-82
2023/07/29 05:56:27;;;;;;;18.45;3.13;;;;;;;21.51;100.00;95773.13;5055906;28;20059;-82
2023/07/29 05:58:52;;;;;;;4.50;2.00;;;;;;;21.30;100.00;95775.38;5072484;28;20028;-83
2023/07/29 06:01:21;;;;;;;6.80;2.30;;;;;;;21.23;100.00;95774.72;5072426;28;20033;-82
2023/07/29 06:03:47;;;;;;;7.07;2.20;;;;;;;21.29;100.00;95767.56;5056211;28;20032;-83
2023/07/29 06:06:12;;;;;;;4.45;2.20;;;;;;;21.27;100.00;95759.00;5056098;28;20797;-82
2023/07/29 06:08:38;;;;;;;6.22;1.95;;;;;;;21.25;100.00;95753.06;5055508;28;20021;-83
2023/07/29 06:11:06;;;;;;;6.68;2.00;;;;;;;21.26;100.00;95750.16;5069375;28;20045;-82
2023/07/29 06:13:32;;;;;;;4.10;2.13;;;;;;;21.51;100.00;95738.34;5048046;28;20028;-82
2023/07/29 06:16:06;;;;;;;4.40;2.08;;;;;;;21.80;100.00;95739.13;5072624;28;20039;-82
2023/07/29 06:18:31;;;;;;;3.35;1.80;;;;;;;21.84;100.00;95732.22;5062129;28;20025;-82
2023/07/29 06:21:07;;;;;;;4.95;2.20;;;;;;;22.01;100.00;95727.69;5072257;28;20066;-82
2023/07/29 06:23:35;;;;;;;4.97;2.20;;;;;;;22.02;100.00;95721.25;5055840;28;20024;-82
2023/07/29 06:26:07;;;;;;;7.38;4.20;;;;;;;21.75;100.00;95729.13;5070852;28;20079;-82
2023/07/29 06:28:50;;;;;;;6.95;3.63;;;;;;;21.86;100.00;95722.91;5060332;28;20025;-82
2023/07/29 06:31:15;;;;;;;6.65;4.75;;;;;;;21.80;100.00;95720.38;5045509;28;20064;-82
2023/07/29 06:33:41;;;;;;;8.52;5.30;;;;;;;22.16;100.00;95720.97;5072001;28;20101;-82
2023/07/29 06:36:06;;;;;;;6.82;5.10;;;;;;;22.30;100.00;95725.75;5070097;28;20031;-82
2023/07/29 06:38:33;;;;;;;7.85;4.45;;;;;;;22.07;100.00;95720.56;5063950;28;20020;-83
2023/07/29 06:40:59;;;;;;;8.02;4.35;;;;;;;22.14;100.00;95726.56;5055715;28;20020;-82
2023/07/29 06:43:30;;;;;;;6.30;2.85;;;;;;;22.30;100.00;95719.56;5072154;28;20132;-82
2023/07/29 06:45:56;;;;;;;7.72;2.88;;;;;;;22.44;100.00;95718.19;5071479;28;20625;-81
2023/07/29 06:48:22;;;;;;;4.32;2.40;;;;;;;22.55;100.00;95716.44;5055005;28;20032;-81
2023/07/29 06:50:47;;;;;;;5.18;2.20;;;;;;;22.57;100.00;95714.34;5071705;28;20451;-82
2023/07/29 06:53:16;;;;;;;7.90;2.45;;;;;;;22.72;100.00;95714.53;5072845;28;20020;-83
2023/07/29 06:55:43;;;;;;;5.75;2.90;;;;;;;22.89;100.00;95722.53;5054052;28;20032;-82
2023/07/29 06:58:21;;;;;;;5.90;2.35;;;;;;;23.26;100.00;95719.22;5072021;28;20024;-82
2023/07/29 07:00:47;;;;;;;5.30;2.47;;;;;;;23.21;100.00;95719.19;5041145;28;20135;-82
2023/07/29 07:03:12;;;;;;;5.53;2.75;;;;;;;23.33;100.00;95721.72;5071393;28;20028;-82
2023/07/29 07:05:46;;;;;;;4.55;2.00;;;;;;;23.39;100.00;95715.34;5069814;28;20016;-82
2023/07/29 07:08:12;;;;;;;4.88;1.92;;;;;;;23.44;100.00;95718.06;5071162;28;20036;-82
2023/07/29 07:10:37;;;;;;;5.72;2.00;;;;;;;23.39;100.00;95726.06;5054420;28;20565;-82
2023/07/29 07:13:04;;;;;;;5.60;2.33;;;;;;;23.61;100.00;95726.84;5071717;28;20025;-80
2023/07/29 07:15:29;;;;;;;5.60;2.13;;;;;;;23.71;100.00;95718.13;5055247;28;20023;-80
2023/07/29 07:17:56;;;;;;;8.48;2.65;;;;;;;24.22;100.00;95719.31;5062086;28;20036;-80
2023/07/29 07:20:21;;;;;;;3.38;1.70;;;;;;;24.21;100.00;95706.97;5050169;28;20499;-81
2023/07/29 07:22:52;;;;;;;2.95;1.95;;;;;;;24.25;100.00;95703.78;5042932;28;20108;-80
2023/07/29 07:25:18;;;;;;;4.05;1.90;;;;;;;24.34;100.00;95715.63;5069066;28;20041;-81
2023/07/29 07:27:43;;;;;;;7.72;2.00;;;;;;;24.47;100.00;95704.47;5071048;28;20031;-80
2023/07/29 07:30:09;;;;;;;5.82;2.20;;;;;;;24.58;100.00;95708.84;5071227;28;20035;-81
2023/07/29 07:32:35;;;;;;;3.05;1.67;;;;;;;24.32;100.00;95707.84;5071642;28;20530;-82
2023/07/29 07:35:00;;;;;;;3.47;1.90;;;;;;;24.22;100.00;95715.84;5054105;28;20024;-82
2023/07/29 07:37:30;;;;;;;3.75;1.77;;;;;;;24.57;100.00;95707.19;5070744;28;20032;-82
2023/07/29 07:39:55;;;;;;;3.65;1.88;;;;;;;23.76;100.00;95716.25;5053884;28;20028;-81
2023/07/29 07:42:21;;;;;;;5.95;1.88;;;;;;;24.32;100.00;95723.97;5070887;28;20102;-82
2023/07/29 07:44:46;;;;;;;6.57;4.57;;;;;;;24.30;100.00;95730.66;5071054;28;20056;-82
2023/07/29 07:47:12;;;;;;;4.85;1.92;;;;;;;24.13;100.00;95731.59;5076717;28;20523;-81
2023/07/29 07:49:42;;;;;;;5.25;1.50;;;;;;;23.75;100.00;95744.19;5071088;28;20667;-82
2023/07/29 07:52:21;;;;;;;6.00;2.25;;;;;;;23.59;100.00;95763.06;5054165;28;20016;-81
2023/07/29 07:54:53;;;;;;;7.55;3.00;;;;;;;23.03;100.00;95784.66;5061644;28;20024;-81
2023/07/29 07:57:19;;;;;;;8.52;2.88;;;;;;;22.61;100.00;95785.16;5070762;28;20402;-81
2023/07/29 07:59:45;;;;;;;6.95;2.22;;;;;;;22.46;100.00;95783.03;5066748;28;20028;-81
2023/07/29 08:02:11;;;;;;;5.55;2.22;;;;;;;22.06;100.00;95783.19;5066223;28;20030;-81
2023/07/29 08:04:36;;;;;;;8.45;2.20;;;;;;;22.04;100.00;95779.94;5054416;28;20538;-82
2023/07/29 08:07:04;;;;;;;7.18;2.05;;;;;;;22.00;100.00;95778.78;5071348;28;20024;-82
2023/07/29 08:09:39;;;;;;;5.82;2.33;;;;;;;22.02;100.00;95782.84;5052102;28;20410;-82
2023/07/29 08:12:05;;;;;;;4.63;2.42;;;;;;;22.01;100.00;95788.47;5050827;28;20513;-82
2023/07/29 08:14:49;;;;;;;7.55;2.25;;;;;;;21.77;100.00;95785.09;5058831;28;20475;-82
2023/07/29 08:17:28;;;;;;;3.63;2.10;;;;;;;21.45;100.00;95772.19;5050662;28;20029;-82
2023/07/29 08:20:02;;;;;;;4.47;2.15;;;;;;;21.24;100.00;95760.28;5066457;28;20048;-82
2023/07/29 08:22:39;;;;;;;4.85;2.20;;;;;;;21.46;100.00;95767.66;5044466;28;20490;-82
2023/07/29 08:25:05;;;;;;;2.80;1.52;;;;;;;21.54;100.00;95769.97;5057029;28;20115;-81
2023/07/29 08:27:30;;;;;;;8.57;1.88;;;;;;;21.48;100.00;95766.38;5067302;28;20052;-81
2023/07/29 08:29:56;;;;;;;2.00;1.10;;;;;;;21.60;100.00;95769.00;5054265;28;20031;-82
2023/07/29 08:32:44;;;;;;;3.75;1.88;;;;;;;21.55;100.00;95763.56;5073509;28;20070;-82
2023/07/29 08:35:14;;;;;;;2.53;1.20;;;;;;;21.54;100.00;95778.00;5075657;28;20107;-82
2023/07/29 08:37:51;;;;;;;2.90;1.40;;;;;;;21.89;100.00;95767.91;5074410;28;20058;-81
2023/07/29 08:40:17;;;;;;;3.83;2.00;;;;;;;22.24;100.00;95760.75;5070367;28;20032;-81
2023/07/29 08:42:45;;;;;;;5.03;1.90;;;;;;;22.53;100.00;95762.25;5075009;28;20493;-82
2023/07/29 08:45:12;;;;;;;4.18;1.52;;;;;;;23.14;100.00;95751.56;5062555;28;20048;-82
2023/07/29 08:47:47;;;;;;;1.83;1.10;;;;;;;23.23;100.00;95752.72;5063102;28;20035;-82
2023/07/29 08:50:15;;;;;;;3.78;1.45;;;;;;;23.22;100.00;95745.75;5066721;28;20174;-82
2023/07/29 08:52:42;;;;;;;1.58;0.95;;;;;;;22.77;100.00;95744.09;5070559;28;20042;-83
2023/07/29 08:55:08;;;;;;;2.53;1.38;;;;;;;22.97;100.00;95753.47;5063980;28;20024;-82
2023/07/29 08:57:35;;;;;;;5.05;1.30;;;;;;;22.97;100.00;95756.16;5057537;28;20020;-83
2023/07/29 09:00:02;;;;;;;2.03;0.90;;;;;;;22.88;100.00;95757.63;5058158;28;20119;-83
2023/07/29 09:02:28;;;;;;;2.58;0.93;;;;;;;22.91;100.00;95762.50;5057234;28;20021;-84
2023/07/29 09:04:53;;;;;;;1.98;0.90;;;;;;;23.09;100.00;95774.81;5043269;28;20043;-83
2023/07/29 09:07:20;;;;;;;1.95;1.08;;;;;;;22.85;100.00;95766.19;5058396;28;20082;-83
2023/07/29 09:09:54;;;;;;;3.88;0.98;;;;;;;23.18;100.00;95766.09;5068579;28;20028;-82
2023/07/29 09:12:20;;;;;;;2.25;0.77;;;;;;;24.38;100.00;95763.25;5054687;28;20029;-85
2023/07/29 09:14:51;;;;;;;2.45;1.17;;;;;;;25.38;100.00;95757.06;5051966;28;20032;-85
2023/07/29 09:17:17;;;;;;;1.42;0.90;;;;;;;25.50;100.00;95754.97;5056024;28;20098;-87
2023/07/29 09:19:48;;;;;;;2.15;1.00;;;;;;;26.86;100.00;95749.09;5070477;28;20020;-89
2023/07/29 09:22:21;;;;;;;2.03;0.85;;;;;;;26.80;100.00;95753.69;5057010;28;20029;-90
2023/07/29 09:24:47;;;;;;;;;;;;;;;26.50;100.00;95757.25;5076402;28;20024;-90
2023/07/29 09:28:02;;;;;;;2.42;1.10;;;;;;;27.37;100.00;95754.31;5076565;28;20305;-89
2023/07/29 09:30:28;;;;;;;5.30;1.45;;;;;;;28.07;100.00;95762.31;5093905;28;20032;-85
2023/07/29 09:32:57;;;;;;;3.03;1.23;;;;;;;28.48;100.00;95753.09;5071793;28;20399;-86
2023/07/29 09:35:24;;;;;;;2.67;1.02;;;;;;;29.33;100.00;95734.28;5069393;28;20060;-87
2023/07/29 09:37:51;;;;;;;2.08;1.10;;;;;;;28.85;100.00;95749.72;5060628;28;20087;-88
2023/07/29 09:40:18;;;;;;;2.85;1.10;;;;;;;28.58;100.00;95742.16;5076498;28;20090;-87
2023/07/29 09:43:09;;;;;;;4.90;1.30;;;;;;;27.85;100.00;95743.00;5075124;28;20026;-88
2023/07/29 09:45:37;;;;;;;2.05;1.00;;;;;;;28.81;100.00;95738.66;5071670;28;20016;-86
2023/07/29 09:48:11;;;;;;;3.47;1.92;;;;;;;29.08;100.00;95737.31;5071769;28;20024;-85
2023/07/29 09:50:42;;;;;;;7.30;1.83;;;;;;;29.22;100.00;95732.81;5074402;28;20024;-85
2023/07/29 09:53:11;;;;;;;3.13;1.23;;;;;;;29.71;100.00;95737.06;5056879;28;20070;-85
2023/07/29 09:55:36;;;;;;;2.67;1.40;;;;;;;29.53;100.00;95730.50;5039388;28;20021;-85
2023/07/29 09:58:06;;;;;;;2.30;1.20;;;;;;;29.70;100.00;95738.16;5056661;28;20032;-84
2023/07/29 10:00:32;;;;;;;2.90;1.13;;;;;;;29.60;100.00;95732.88;5073400;28;20111;-83
2023/07/29 10:02:58;;;;;;;1.50;1.05;;;;;;;29.63;100.00;95736.91;5056664;28;20024;-84
2023/07/29 10:05:47;;;;;;;2.75;1.40;;;;;;;30.50;100.00;95739.88;5056538;28;20029;-83
2023/07/29 10:08:14;;;;;;;2.70;1.30;;;;;;;29.63;100.00;95737.72;5072545;28;20017;-82
2023/07/29 10:10:42;;;;;;;5.47;1.42;;;;;;;28.74;100.00;95735.50;5072546;28;20033;-83
2023/07/29 10:13:12;;;;;;;2.95;1.27;;;;;;;29.57;100.00;95733.41;5065434;28;20028;-83
2023/07/29 10:15:38;;;;;;;2.70;1.30;;;;;;;30.49;100.00;95723.91;5070199;28;20367;-83
2023/07/29 10:18:04;;;;;;;2.15;1.25;;;;;;;29.97;100.00;95723.91;5071918;28;20085;-83
2023/07/29 10:20:42;;;;;;;2.35;1.30;;;;;;;29.83;100.00;95710.31;5071155;28;20009;-84
2023/07/29 10:23:09;;;;;;;3.17;1.50;;;;;;;30.04;100.00;95718.13;5053372;28;20025;-83
2023/07/29 10:25:46;;;;;;;2.05;1.30;;;;;;;30.49;100.00;95719.28;5055720;28;20024;-83
2023/07/29 10:28:15;;;;;;;3.13;1.40;;;;;;;30.57;100.00;95744.94;5071505;28;20144;-84
2023/07/29 10:30:44;;;;;;;1.92;1.15;;;;;;;30.39;100.00;95743.88;5070947;28;20441;-83
2023/07/29 10:33:15;;;;;;;2.80;1.20;;;;;;;30.60;100.00;95733.47;5059454;28;20025;-85
2023/07/29 10:35:41;;;;;;;11.40;9.00;;;;;;;30.96;100.00;95730.13;5074650;28;20051;-83
2023/07/29 10:38:10;;;;;;;2.25;1.73;;;;;;;31.04;100.00;95742.19;5066781;28;20023;-82
2023/07/29 10:40:56;;;;;;;8.30;1.90;;;;;;;30.05;100.00;95742.25;5054754;28;20070;-83
2023/07/29 10:43:47;;;;;;;3.55;1.58;;;;;;;29.23;100.00;95737.13;5051821;28;20025;-84
2023/07/29 10:46:20;;;;;;;2.60;1.40;;;;;;;28.98;100.00;95734.72;5037092;28;20758;-83
2023/07/29 10:48:54;;;;;;;2.33;1.30;;;;;;;29.32;100.00;95716.44;5069637;28;20032;-84
2023/07/29 10:51:29;;;;;;;5.75;1.67;;;;;;;30.20;100.00;95716.78;5065914;28;20115;-84
2023/07/29 10:53:58;;;;;;;2.22;1.42;;;;;;;30.66;100.00;95713.28;5056514;28;20025;-83
2023/07/29 10:56:29;;;;;;;2.25;1.50;;;;;;;30.70;100.00;95713.50;5065754;28;20032;-84
2023/07/29 10:59:19;;;;;;;3.28;1.90;;;;;;;29.70;100.00;95712.94;5072772;28;20496;-84
2023/07/29 11:01:57;;;;;;;2.10;1.30;;;;;;;28.23;100.00;95735.13;5045591;28;20025;-84
2023/07/29 11:04:25;;;;;;;4.57;2.60;;;;;;;28.46;100.00;95737.13;5063977;28;20418;-83
2023/07/29 11:07:10;;;;;;;2.95;1.33;;;;;;;26.89;100.00;95764.72;5055151;28;20039;-83
2023/07/29 11:09:47;;;;;;;7.38;2.60;;;;;;;24.85;100.00;95827.03;5065162;28;20082;-82
2023/07/29 11:13:06;;;;;;;10.18;2.30;;;;;;;23.49;100.00;95807.50;5064440;28;20391;-81
2023/07/29 11:15:32;;;;;;;5.55;1.00;;;;;;;23.87;100.00;95781.59;5072200;28;20049;-81
2023/07/29 11:18:02;;;;;;;3.42;0.80;;;;;;;24.39;100.00;95791.72;5080093;28;20023;-81
2023/07/29 11:20:38;;;;;;;3.05;1.05;;;;;;;23.78;100.00;95782.34;5054063;28;20391;-81
2023/07/29 11:23:05;;;;;;;1.38;0.60;;;;;;;24.57;100.00;95785.16;5051220;28;20021;-81
2023/07/29 11:25:33;;;;;;;3.47;0.95;;;;;;;24.22;100.00;95789.19;5054837;28;20418;-81
2023/07/29 11:27:59;;;;;;;1.45;0.73;;;;;;;24.28;100.00;95791.91;5071439;28;20744;-81
2023/07/29 11:30:33;;;;;;;1.52;0.70;;;;;;;24.31;100.00;95784.16;5072733;28;20379;-81
2023/07/29 11:33:03;;;;;;;1.92;0.80;;;;;;;24.88;100.00;95788.03;5053989;28;20028;-81
2023/07/29 11:35:28;;;;;;;1.27;0.80;;;;;;;24.99;100.00;95776.28;5059954;28;20024;-82